Terminal Aerodrome Forecast
Issued by NWS

Home | Current Version | Previous Version | Graphics & Text | Print | Product List | Glossary Off
Versions: 1 2 3 4 5 6 7 8 9 10 11 12 13 14 15 16 17 18 19 20 21

000
FTUS43 KGRB 110527
TAFAUW
TAF
KAUW 110527Z 1106/1206 17002KT P6SM SCT025 OVC070
      TEMPO 1106/1107 BKN025
     FM110900 16003KT 5SM -SHSN SCT025 OVC040
     FM111100 17004KT 1 1/2SM -SHSN OVC010
     FM111600 17004KT 3SM -FZDZSN OVC010
     FM112000 33006KT P6SM OVC013
     FM112300 33010G17KT P6SM BKN029=

USA.gov is the U.S. government's official web portal to all federal, state and local government web resources and services.